createdAt,value
2023-02-18T00:00:46.164Z,0.55
2023-02-18T00:02:18.267Z,0.56
2023-02-18T00:03:50.510Z,0.57
2023-02-18T00:05:22.821Z,0.59
2023-02-18T00:06:54.919Z,0.64
2023-02-18T00:08:26.946Z,0.63
2023-02-18T00:09:59.131Z,0.51
2023-02-18T00:11:32.888Z,0.51
2023-02-18T00:13:04.948Z,0.47
2023-02-18T00:14:37.003Z,0.40
2023-02-18T00:16:11.916Z,0.40
2023-02-18T00:17:44.107Z,0.36
2023-02-18T00:19:18.455Z,0.39
2023-02-18T00:20:50.534Z,0.35
2023-02-18T00:22:22.650Z,0.38
2023-02-18T00:23:54.945Z,0.43
2023-02-18T00:25:27.104Z,0.45
2023-02-18T00:26:59.117Z,0.47
2023-02-18T00:28:31.313Z,0.47
2023-02-18T00:30:04.430Z,0.43
2023-02-18T00:31:37.426Z,0.39
2023-02-18T00:33:09.885Z,0.35
2023-02-18T00:34:42.000Z,0.33
2023-02-18T00:36:16.494Z,0.34
2023-02-18T00:37:48.647Z,0.36
2023-02-18T00:39:20.683Z,0.39
2023-02-18T00:40:52.710Z,0.39
2023-02-18T00:42:24.746Z,0.39
2023-02-18T00:43:56.932Z,0.36
2023-02-18T00:45:30.012Z,0.39
2023-02-18T00:47:02.099Z,0.40
2023-02-18T00:48:35.168Z,0.44
2023-02-18T00:50:08.249Z,0.43
2023-02-18T00:51:40.321Z,0.40
2023-02-18T00:53:12.333Z,0.39
2023-02-18T00:54:44.362Z,0.37
2023-02-18T00:56:16.417Z,0.40
2023-02-18T00:57:48.419Z,0.42
2023-02-18T00:59:20.459Z,0.45
2023-02-18T01:00:52.626Z,0.45
2023-02-18T01:02:24.681Z,0.44
2023-02-18T01:03:56.826Z,0.42
2023-02-18T01:05:29.218Z,0.40
2023-02-18T01:07:01.195Z,0.41
2023-02-18T01:08:34.311Z,0.42
2023-02-18T01:10:06.922Z,0.47
2023-02-18T01:11:39.059Z,0.51
2023-02-18T01:13:12.818Z,0.55
2023-02-18T01:14:45.031Z,0.56
2023-02-18T01:16:17.490Z,0.54
2023-02-18T01:17:49.554Z,0.53
2023-02-18T01:19:21.511Z,0.49
2023-02-18T01:20:53.785Z,0.49
2023-02-18T01:22:26.045Z,0.44
2023-02-18T01:23:58.645Z,0.36
2023-02-18T01:25:30.832Z,0.32
2023-02-18T01:27:02.808Z,0.34
2023-02-18T01:28:34.936Z,0.37
2023-02-18T01:30:09.073Z,0.39
2023-02-18T01:31:41.361Z,0.40
2023-02-18T01:33:13.525Z,0.45
2023-02-18T01:34:45.555Z,0.45
2023-02-18T01:36:18.813Z,0.44
2023-02-18T01:37:51.508Z,0.34
2023-02-18T01:39:23.509Z,0.25
2023-02-18T01:40:55.579Z,0.27
2023-02-18T01:42:29.858Z,0.31
2023-02-18T01:44:17.279Z,0.37
2023-02-18T01:46:09.261Z,0.42
2023-02-18T01:47:41.534Z,0.43
2023-02-18T01:49:18.454Z,0.48
2023-02-18T01:51:19.658Z,0.46
2023-02-18T01:52:51.701Z,0.45
2023-02-18T01:54:29.949Z,0.42
2023-02-18T01:56:06.727Z,0.36
2023-02-18T01:57:39.371Z,0.31
2023-02-18T01:59:14.514Z,0.34
2023-02-18T02:00:46.686Z,0.32
2023-02-18T02:02:22.635Z,0.40
2023-02-18T02:03:54.972Z,0.39
2023-02-18T02:05:31.724Z,0.45
2023-02-18T02:07:03.991Z,0.44
2023-02-18T02:08:36.065Z,0.42
2023-02-18T02:10:08.837Z,0.43
2023-02-18T02:11:58.974Z,0.50
2023-02-18T02:14:04.974Z,0.49
2023-02-18T02:15:51.825Z,0.50
2023-02-18T02:17:41.672Z,0.47
2023-02-18T02:19:16.771Z,0.42
2023-02-18T02:21:07.478Z,0.44
2023-02-18T02:23:27.950Z,0.47
2023-02-18T02:25:23.008Z,0.51
2023-02-18T02:27:09.941Z,0.54
2023-02-18T02:28:53.968Z,0.53
2023-02-18T02:30:42.522Z,0.58
2023-02-18T02:32:51.285Z,0.58
2023-02-18T02:34:43.642Z,0.56
2023-02-18T02:36:26.429Z,0.59
2023-02-18T02:38:10.155Z,0.59
2023-02-18T02:39:56.884Z,0.62
2023-02-18T02:41:39.710Z,0.62
2023-02-18T02:43:58.266Z,0.62
2023-02-18T02:45:37.347Z,0.57
2023-02-18T02:47:13.393Z,0.56
2023-02-18T02:49:08.604Z,0.62
2023-02-18T02:50:52.947Z,0.66
2023-02-18T02:52:31.460Z,0.67
2023-02-18T02:54:19.307Z,0.67
2023-02-18T02:55:51.364Z,0.60
2023-02-18T02:57:23.351Z,0.58
2023-02-18T02:59:00.195Z,0.54
2023-02-18T03:00:48.587Z,0.54
2023-02-18T03:02:29.248Z,0.54
2023-02-18T03:04:25.962Z,0.56
2023-02-18T03:06:16.882Z,0.54
2023-02-18T03:08:23.708Z,0.52
2023-02-18T03:10:22.898Z,0.54
2023-02-18T03:12:09.159Z,0.55
2023-02-18T03:13:53.022Z,0.59
2023-02-18T03:15:36.478Z,0.63
2023-02-18T03:17:16.255Z,0.55
2023-02-18T03:19:20.510Z,0.59
2023-02-18T03:21:06.180Z,0.66
2023-02-18T03:22:44.494Z,0.69
2023-02-18T03:24:28.980Z,0.71
2023-02-18T03:26:04.874Z,0.74
2023-02-18T03:28:04.423Z,0.80
2023-02-18T03:29:36.639Z,0.76
2023-02-18T03:31:18.660Z,0.79
2023-02-18T03:32:56.741Z,0.77
2023-02-18T03:34:33.550Z,0.77
2023-02-18T03:36:06.259Z,0.76
2023-02-18T03:37:42.773Z,0.86
2023-02-18T03:39:16.733Z,0.90
2023-02-18T03:40:48.929Z,0.85
2023-02-18T03:42:20.979Z,0.85
2023-02-18T03:44:00.947Z,0.90
2023-02-18T03:45:33.040Z,0.82
2023-02-18T03:47:05.141Z,0.82
2023-02-18T03:48:37.455Z,0.83
2023-02-18T03:50:09.730Z,0.83
2023-02-18T03:51:42.289Z,0.84
2023-02-18T03:53:14.263Z,0.85
2023-02-18T03:54:46.340Z,0.91
2023-02-18T03:56:18.579Z,0.95
2023-02-18T03:57:50.668Z,0.97
2023-02-18T03:59:22.683Z,0.95
2023-02-18T04:00:54.909Z,0.97
2023-02-18T04:02:27.182Z,0.99
2023-02-18T04:05:33.994Z,1.04
2023-02-18T04:07:06.011Z,1.04
2023-02-18T04:08:38.004Z,1.06
2023-02-18T04:10:10.504Z,1.10
2023-02-18T04:11:42.558Z,1.11
2023-02-18T04:13:14.609Z,1.13
2023-02-18T04:14:46.657Z,1.12
2023-02-18T04:16:18.744Z,1.09
2023-02-18T04:17:50.806Z,1.11
2023-02-18T04:19:22.841Z,1.11
2023-02-18T04:20:54.813Z,1.10
2023-02-18T04:22:26.841Z,1.12
2023-02-18T04:23:59.007Z,1.15
2023-02-18T04:25:31.336Z,1.21
2023-02-18T04:27:03.362Z,1.24
2023-02-18T04:28:35.631Z,1.26
2023-02-18T04:30:08.382Z,1.28
2023-02-18T04:31:40.470Z,1.35
2023-02-18T04:33:12.580Z,1.42
2023-02-18T04:34:44.703Z,1.48
2023-02-18T04:36:16.701Z,1.53
2023-02-18T04:37:48.807Z,1.62
2023-02-18T04:40:52.691Z,1.64
2023-02-18T04:42:24.804Z,1.66
2023-02-18T04:43:56.905Z,1.71
2023-02-18T04:45:29.301Z,1.74
2023-02-18T04:47:01.312Z,1.77
2023-02-18T04:48:35.406Z,1.77
2023-02-18T04:50:08.171Z,1.81
2023-02-18T04:51:40.287Z,1.84
2023-02-18T04:53:12.345Z,1.87
2023-02-18T04:54:44.458Z,1.91
2023-02-18T04:56:16.556Z,1.90
2023-02-18T04:57:48.615Z,1.87
2023-02-18T04:59:20.745Z,1.89
2023-02-18T05:00:54.259Z,1.88
2023-02-18T05:02:26.414Z,1.91
2023-02-18T05:03:58.596Z,1.98
2023-02-18T05:05:30.673Z,2.03
2023-02-18T05:07:03.014Z,2.08
2023-02-18T05:08:35.201Z,2.13
2023-02-18T05:10:07.932Z,2.17
2023-02-18T05:11:40.300Z,2.21
2023-02-18T05:13:12.345Z,2.23
2023-02-18T05:14:44.463Z,2.26
2023-02-18T05:16:16.607Z,2.29
2023-02-18T05:17:48.643Z,2.33
2023-02-18T05:19:20.827Z,2.34
2023-02-18T05:20:52.857Z,2.38
2023-02-18T05:22:24.903Z,2.38
2023-02-18T05:23:57.098Z,2.40
2023-02-18T05:25:29.047Z,2.44
2023-02-18T05:27:01.191Z,2.48
2023-02-18T05:28:33.723Z,2.53
2023-02-18T05:30:06.581Z,2.56
2023-02-18T05:31:38.915Z,2.61
2023-02-18T05:33:11.128Z,2.68
2023-02-18T05:34:43.123Z,2.70
2023-02-18T05:36:15.355Z,2.73
2023-02-18T05:39:17.617Z,2.73
2023-02-18T05:40:49.763Z,2.77
2023-02-18T05:42:21.840Z,2.78
2023-02-18T05:44:12.341Z,2.83
2023-02-18T05:45:44.385Z,2.88
2023-02-18T05:47:16.661Z,2.89
2023-02-18T05:48:49.005Z,2.91
2023-02-18T05:50:24.527Z,2.96
2023-02-18T05:51:56.779Z,2.99
2023-02-18T05:53:28.782Z,3.05
2023-02-18T05:55:00.803Z,3.11
2023-02-18T05:56:32.865Z,3.14
2023-02-18T05:58:05.942Z,3.20
2023-02-18T05:59:38.082Z,3.25
2023-02-18T06:01:10.168Z,3.26
2023-02-18T06:02:42.286Z,3.28
2023-02-18T06:04:15.438Z,3.33
2023-02-18T06:05:50.633Z,3.38
2023-02-18T06:07:35.205Z,3.32
2023-02-18T06:09:07.843Z,3.40
2023-02-18T06:10:41.075Z,3.42
2023-02-18T06:12:13.306Z,3.44
2023-02-18T06:13:45.370Z,3.49
2023-02-18T06:15:17.655Z,3.53
2023-02-18T06:16:49.826Z,3.57
2023-02-18T06:18:22.378Z,3.63
2023-02-18T06:19:54.415Z,3.60
2023-02-18T06:21:26.614Z,3.63
2023-02-18T06:22:58.899Z,3.66
2023-02-18T06:24:31.027Z,3.68
2023-02-18T06:26:03.093Z,3.73
2023-02-18T06:27:35.225Z,3.79
2023-02-18T06:29:07.218Z,3.85
2023-02-18T06:30:42.367Z,3.90
2023-02-18T06:32:14.618Z,3.95
2023-02-18T06:33:46.756Z,3.96
2023-02-18T06:35:18.805Z,4.02
2023-02-18T06:36:50.861Z,4.05
2023-02-18T06:38:23.024Z,4.11
2023-02-18T06:39:55.285Z,4.16
2023-02-18T06:41:27.504Z,4.19
2023-02-18T06:42:59.800Z,4.21
2023-02-18T06:44:31.780Z,4.28
2023-02-18T06:46:05.032Z,4.36
2023-02-18T06:47:37.050Z,4.42
2023-02-18T06:49:09.161Z,4.48
2023-02-18T06:50:43.071Z,4.59
2023-02-18T06:52:15.326Z,4.65
2023-02-18T06:53:47.347Z,4.71
2023-02-18T06:55:19.538Z,4.80
2023-02-18T06:56:51.684Z,4.85
2023-02-18T06:58:23.724Z,4.95
2023-02-18T06:59:55.748Z,5.05
2023-02-18T07:01:28.072Z,5.18
2023-02-18T07:03:00.081Z,5.30
2023-02-18T07:04:32.062Z,5.43
2023-02-18T07:06:04.399Z,5.56
2023-02-18T07:07:36.549Z,5.73
2023-02-18T07:09:08.620Z,5.88
2023-02-18T07:10:40.706Z,6.05
2023-02-18T07:13:52.348Z,6.28
2023-02-18T07:15:24.738Z,6.45
2023-02-18T07:16:56.740Z,6.57
2023-02-18T07:18:28.887Z,6.68
2023-02-18T07:20:01.343Z,6.82
2023-02-18T07:21:33.544Z,6.94
2023-02-18T07:23:05.557Z,7.01
2023-02-18T07:24:37.575Z,7.11
2023-02-18T07:26:12.282Z,7.20
2023-02-18T07:27:44.708Z,7.26
2023-02-18T07:29:16.850Z,7.32
2023-02-18T07:30:48.822Z,7.41
2023-02-18T07:32:21.100Z,7.50
2023-02-18T07:33:53.061Z,7.60
2023-02-18T07:35:25.312Z,7.70
2023-02-18T07:36:57.380Z,7.79
2023-02-18T07:38:29.816Z,7.91
2023-02-18T07:40:01.830Z,8.10
2023-02-18T07:41:33.934Z,8.25
2023-02-18T07:43:05.943Z,8.42
2023-02-18T07:44:38.675Z,8.58
2023-02-18T07:46:11.020Z,8.71
2023-02-18T07:47:43.546Z,8.85
2023-02-18T07:49:18.648Z,8.97
2023-02-18T07:50:50.598Z,9.08
2023-02-18T07:52:22.678Z,9.21
2023-02-18T07:53:54.759Z,9.37
2023-02-18T07:55:46.867Z,9.52
2023-02-18T07:57:18.918Z,9.71
2023-02-18T07:58:50.912Z,9.85
2023-02-18T08:00:23.420Z,9.99
2023-02-18T08:01:55.516Z,10.13
2023-02-18T08:03:30.531Z,10.30
2023-02-18T08:05:02.558Z,10.45
2023-02-18T08:06:37.837Z,10.66
2023-02-18T08:08:16.911Z,10.83
2023-02-18T08:09:51.018Z,11.16
2023-02-18T08:11:23.316Z,11.61
2023-02-18T08:12:55.353Z,12.01
2023-02-18T08:14:27.339Z,12.22
2023-02-18T08:17:34.388Z,12.49
2023-02-18T08:19:06.527Z,12.69
2023-02-18T08:20:38.860Z,12.85
2023-02-18T08:22:10.912Z,13.02
2023-02-18T08:23:43.081Z,13.10
2023-02-18T08:25:28.566Z,13.23
2023-02-18T08:27:01.873Z,13.47
2023-02-18T08:28:34.145Z,13.54
2023-02-18T08:30:06.905Z,13.56
2023-02-18T08:31:39.294Z,13.61
2023-02-18T08:33:11.466Z,13.68
2023-02-18T08:34:43.695Z,13.74
2023-02-18T08:36:15.899Z,13.84
2023-02-18T08:37:52.516Z,13.86
2023-02-18T08:39:26.078Z,13.89
2023-02-18T08:41:05.961Z,13.95
2023-02-18T08:42:38.137Z,13.92
2023-02-18T08:44:10.233Z,14.00
2023-02-18T08:45:43.560Z,14.03
2023-02-18T08:48:17.944Z,14.10
2023-02-18T08:49:07.540Z,14.02
2023-02-18T08:50:39.785Z,14.00
2023-02-18T08:52:11.982Z,14.01
2023-02-18T08:53:45.450Z,14.01
2023-02-18T08:55:21.047Z,14.06
2023-02-18T08:56:58.037Z,14.04
2023-02-18T08:58:30.104Z,14.02
2023-02-18T09:00:02.339Z,14.05
2023-02-18T09:01:34.731Z,14.06
2023-02-18T09:03:07.268Z,14.06
2023-02-18T09:04:39.328Z,14.09
2023-02-18T09:06:11.414Z,14.12
2023-02-18T09:07:43.710Z,14.18
2023-02-18T09:09:16.850Z,14.27
2023-02-18T09:10:48.991Z,14.40
2023-02-18T09:12:21.055Z,14.43
2023-02-18T09:13:53.252Z,14.48
2023-02-18T09:15:25.410Z,14.51
2023-02-18T09:16:58.908Z,14.58
2023-02-18T09:18:31.206Z,14.62
2023-02-18T09:20:04.498Z,14.60
2023-02-18T09:21:36.884Z,14.63
2023-02-18T09:23:09.106Z,14.72
2023-02-18T09:24:42.188Z,14.82
2023-02-18T09:26:16.008Z,14.84
2023-02-18T09:27:48.166Z,14.87
2023-02-18T09:29:20.739Z,14.92
2023-02-18T09:30:53.418Z,15.01
2023-02-18T09:32:34.207Z,15.02
2023-02-18T09:34:07.646Z,15.06
2023-02-18T09:35:41.363Z,15.10
2023-02-18T09:37:14.930Z,15.16
2023-02-18T09:38:47.627Z,15.21
2023-02-18T09:40:29.950Z,15.32
2023-02-18T09:42:04.021Z,15.33
2023-02-18T09:43:44.047Z,15.31
2023-02-18T09:45:16.854Z,15.33
2023-02-18T09:47:01.412Z,15.43
2023-02-18T09:48:35.827Z,15.38
2023-02-18T09:50:22.713Z,15.42
2023-02-18T09:51:56.542Z,15.40
2023-02-18T09:53:28.821Z,15.38
2023-02-18T09:55:00.911Z,15.36
2023-02-18T09:56:36.241Z,15.42
2023-02-18T09:58:14.864Z,15.42
2023-02-18T09:59:48.508Z,15.41
2023-02-18T10:01:36.778Z,15.47
2023-02-18T10:03:13.568Z,15.52
2023-02-18T10:04:52.482Z,15.56
2023-02-18T10:06:31.395Z,15.63
2023-02-18T10:08:07.693Z,15.64
2023-02-18T10:09:42.113Z,15.69
2023-02-18T10:11:22.888Z,15.75
2023-02-18T10:12:56.107Z,15.82
2023-02-18T10:16:06.948Z,15.86
2023-02-18T10:17:39.306Z,15.88
2023-02-18T10:19:30.818Z,15.93
2023-02-18T10:21:08.664Z,15.94
2023-02-18T10:22:40.928Z,15.95
2023-02-18T10:24:22.900Z,16.06
2023-02-18T10:25:56.104Z,16.05
2023-02-18T10:27:30.969Z,16.10
2023-02-18T10:29:03.283Z,16.06
2023-02-18T10:30:40.931Z,16.17
2023-02-18T10:32:25.991Z,16.17
2023-02-18T10:34:25.315Z,16.18
2023-02-18T10:36:11.975Z,16.33
2023-02-18T10:37:52.854Z,16.40
2023-02-18T10:39:57.152Z,16.47
2023-02-18T10:41:40.797Z,16.46
2023-02-18T10:43:18.787Z,16.40
2023-02-18T10:45:18.935Z,16.48
2023-02-18T10:47:08.146Z,16.47
2023-02-18T10:48:53.101Z,16.46
2023-02-18T10:50:28.185Z,16.41
2023-02-18T10:52:03.280Z,16.50
2023-02-18T10:53:38.436Z,16.46
2023-02-18T10:55:13.137Z,16.47
2023-02-18T10:56:50.838Z,16.47
2023-02-18T10:58:33.624Z,16.52
2023-02-18T11:00:24.356Z,16.44
2023-02-18T11:01:59.338Z,16.55
2023-02-18T11:03:44.267Z,16.56
2023-02-18T11:05:24.236Z,16.49
2023-02-18T11:06:56.391Z,16.49
2023-02-18T11:08:29.761Z,16.47
2023-02-18T11:10:03.405Z,16.53
2023-02-18T11:11:38.737Z,16.58
2023-02-18T11:14:46.930Z,16.60
2023-02-18T11:16:23.251Z,16.62
2023-02-18T11:18:12.686Z,16.69
2023-02-18T11:19:53.069Z,16.66
2023-02-18T11:21:30.563Z,16.70
2023-02-18T11:23:08.743Z,16.68
2023-02-18T11:24:40.929Z,16.63
2023-02-18T11:26:15.825Z,16.73
2023-02-18T11:27:58.606Z,16.77
2023-02-18T11:29:31.968Z,16.74
2023-02-18T11:31:05.510Z,16.79
2023-02-18T11:32:37.739Z,16.74
2023-02-18T11:34:22.106Z,16.76
2023-02-18T11:35:59.139Z,16.82
2023-02-18T11:37:33.823Z,16.84
2023-02-18T11:39:18.173Z,16.88
2023-02-18T11:40:58.543Z,16.88
2023-02-18T11:42:30.798Z,16.87
2023-02-18T11:44:05.154Z,16.91
2023-02-18T11:45:37.357Z,16.89
2023-02-18T11:47:15.490Z,16.97
2023-02-18T11:48:48.336Z,16.97
2023-02-18T11:50:23.685Z,16.98
2023-02-18T11:51:56.205Z,16.98
2023-02-18T11:53:32.306Z,17.00
2023-02-18T11:55:07.737Z,16.98
2023-02-18T11:56:41.242Z,17.03
2023-02-18T11:58:14.789Z,17.08
2023-02-18T11:59:46.936Z,17.10
2023-02-18T12:01:43.081Z,17.15
2023-02-18T12:03:42.471Z,17.17
2023-02-18T12:05:27.084Z,17.20
2023-02-18T12:07:38.200Z,17.24
2023-02-18T12:09:19.435Z,17.27
2023-02-18T12:11:02.848Z,17.26
2023-02-18T12:12:47.462Z,17.26
2023-02-18T12:14:21.834Z,17.23
2023-02-18T12:16:28.858Z,17.23
2023-02-18T12:18:15.325Z,17.18
2023-02-18T12:20:22.568Z,17.21
2023-02-18T12:22:04.478Z,17.18
2023-02-18T12:23:57.476Z,17.14
2023-02-18T12:25:57.507Z,17.11
2023-02-18T12:27:54.326Z,17.12
2023-02-18T12:29:47.603Z,17.09
2023-02-18T12:31:44.467Z,17.07
2023-02-18T12:33:39.566Z,17.04
2023-02-18T12:35:30.246Z,17.04
2023-02-18T12:37:17.417Z,17.00
2023-02-18T12:38:59.571Z,16.96
2023-02-18T12:40:38.341Z,16.91
2023-02-18T12:44:19.429Z,16.96
2023-02-18T12:46:10.298Z,16.92
2023-02-18T12:48:20.078Z,16.94
2023-02-18T12:49:57.664Z,16.89
2023-02-18T12:51:49.471Z,16.89
2023-02-18T12:53:30.790Z,16.89
2023-02-18T12:55:40.186Z,16.87
2023-02-18T12:57:40.739Z,16.81
2023-02-18T12:59:54.567Z,16.73
2023-02-18T13:01:32.468Z,16.67
2023-02-18T13:03:50.541Z,16.69
2023-02-18T13:05:33.764Z,16.65
2023-02-18T13:07:40.424Z,16.58
2023-02-18T13:09:49.489Z,16.54
2023-02-18T13:11:28.406Z,16.50
2023-02-18T13:13:13.682Z,16.49
2023-02-18T13:15:05.933Z,16.47
2023-02-18T13:16:39.317Z,16.39
2023-02-18T13:18:16.864Z,16.38
2023-02-18T13:19:55.555Z,16.36
2023-02-18T13:21:28.093Z,16.34
2023-02-18T13:23:00.229Z,16.34
2023-02-18T13:24:37.665Z,16.45
2023-02-18T13:26:12.619Z,16.46
2023-02-18T13:27:54.116Z,16.42
2023-02-18T13:29:31.766Z,16.41
2023-02-18T13:31:33.018Z,16.38
2023-02-18T13:33:17.966Z,16.30
2023-02-18T13:35:16.790Z,16.26
2023-02-18T13:37:17.696Z,16.23
2023-02-18T13:38:52.289Z,16.18
2023-02-18T13:40:29.444Z,16.19
2023-02-18T13:42:30.979Z,16.17
2023-02-18T13:44:30.451Z,16.13
2023-02-18T13:46:08.378Z,16.06
2023-02-18T13:47:42.023Z,16.03
2023-02-18T13:49:14.471Z,16.02
2023-02-18T13:50:46.515Z,15.99
2023-02-18T13:52:20.434Z,16.01
2023-02-18T13:53:53.065Z,15.95
2023-02-18T13:56:04.861Z,16.01
2023-02-18T13:57:37.734Z,15.94
2023-02-18T13:59:29.018Z,15.90
2023-02-18T14:01:15.297Z,15.95
2023-02-18T14:03:01.932Z,15.94
2023-02-18T14:04:43.883Z,15.91
2023-02-18T14:06:31.305Z,15.90
2023-02-18T14:08:29.971Z,15.86
2023-02-18T14:10:05.214Z,15.83
2023-02-18T14:12:01.945Z,15.81
2023-02-18T14:13:56.632Z,15.79
2023-02-18T14:15:28.714Z,15.72
2023-02-18T14:17:35.860Z,15.69
2023-02-18T14:19:28.587Z,15.67
2023-02-18T14:22:46.291Z,15.73
2023-02-18T14:24:44.846Z,15.80
2023-02-18T14:26:16.992Z,15.76
2023-02-18T14:27:53.620Z,15.77
2023-02-18T14:59:06.201Z,15.75
2023-02-18T15:00:42.233Z,15.74
2023-02-18T15:02:27.805Z,15.71
2023-02-18T15:04:02.019Z,15.70
2023-02-18T15:05:38.822Z,15.70
2023-02-18T15:07:12.743Z,15.64
2023-02-18T15:08:44.809Z,15.60
2023-02-18T15:10:17.129Z,15.59
2023-02-18T15:12:08.559Z,15.64
2023-02-18T15:13:44.961Z,15.63
2023-02-18T15:15:23.904Z,15.61
2023-02-18T15:16:56.141Z,15.57
2023-02-18T15:18:41.556Z,15.54
2023-02-18T15:20:14.701Z,15.51
2023-02-18T15:21:51.707Z,15.49
2023-02-18T15:23:23.897Z,15.44
2023-02-18T15:24:57.334Z,15.42
2023-02-18T15:26:29.243Z,15.42
2023-02-18T15:28:01.542Z,15.31
2023-02-18T15:29:36.933Z,15.25
2023-02-18T15:31:13.951Z,15.21
2023-02-18T15:32:55.704Z,15.15
2023-02-18T15:34:33.846Z,15.09
2023-02-18T15:36:07.383Z,15.00
2023-02-18T15:37:39.545Z,14.91
2023-02-18T15:39:11.556Z,14.85
2023-02-18T15:40:50.706Z,14.79
2023-02-18T15:42:37.198Z,14.73
2023-02-18T15:44:09.380Z,14.63
2023-02-18T15:45:45.910Z,14.59
2023-02-18T15:47:19.117Z,14.51
2023-02-18T15:48:53.942Z,14.45
2023-02-18T15:50:32.736Z,14.40
2023-02-18T15:52:05.413Z,14.31
2023-02-18T15:53:40.572Z,14.27
2023-02-18T15:55:25.994Z,14.17
2023-02-18T15:57:02.182Z,14.08
2023-02-18T15:58:35.072Z,13.99
2023-02-18T16:01:39.107Z,13.80
2023-02-18T16:03:26.514Z,13.72
2023-02-18T16:05:01.257Z,13.62
2023-02-18T16:06:39.484Z,13.52
2023-02-18T16:08:16.995Z,13.43
2023-02-18T16:09:49.213Z,13.34
2023-02-18T16:11:24.513Z,13.27
2023-02-18T16:13:00.713Z,13.19
2023-02-18T16:14:46.095Z,13.13
2023-02-18T16:16:25.133Z,13.04
2023-02-18T16:17:59.264Z,12.94
2023-02-18T16:19:32.467Z,12.89
2023-02-18T16:21:09.954Z,12.79
2023-02-18T16:22:53.260Z,12.70
2023-02-18T16:24:33.426Z,12.59
2023-02-18T16:26:20.471Z,12.48
2023-02-18T16:28:07.400Z,12.38
2023-02-18T16:29:42.884Z,12.26
2023-02-18T16:31:16.910Z,12.13
2023-02-18T16:32:49.364Z,12.09
2023-02-18T16:34:21.501Z,12.00
2023-02-18T16:35:53.948Z,11.93
2023-02-18T16:37:40.815Z,11.88
2023-02-18T16:39:12.986Z,11.79
2023-02-18T16:40:45.691Z,11.72
2023-02-18T16:42:17.775Z,11.63
2023-02-18T16:43:50.720Z,11.58
2023-02-18T16:45:31.674Z,11.52
2023-02-18T16:47:04.225Z,11.41
2023-02-18T16:48:41.020Z,11.35
2023-02-18T16:50:21.626Z,11.30
2023-02-18T16:51:53.653Z,11.21
2023-02-18T16:53:25.766Z,11.16
2023-02-18T16:54:58.487Z,11.12
2023-02-18T16:56:33.644Z,11.09
2023-02-18T16:58:05.841Z,11.00
2023-02-18T17:01:45.154Z,10.91
2023-02-18T17:03:17.301Z,10.77
2023-02-18T17:04:49.406Z,10.64
2023-02-18T17:06:22.253Z,10.50
2023-02-18T17:07:55.515Z,10.30
2023-02-18T17:09:30.699Z,10.12
2023-02-18T17:11:02.697Z,10.04
2023-02-18T17:12:34.750Z,9.98
2023-02-18T17:14:06.716Z,9.92
2023-02-18T17:15:38.934Z,9.92
2023-02-18T17:17:12.880Z,9.95
2023-02-18T17:18:45.807Z,9.91
2023-02-18T17:20:18.434Z,9.87
2023-02-18T17:21:50.509Z,9.84
2023-02-18T17:23:24.420Z,9.80
2023-02-18T17:24:56.521Z,9.71
2023-02-18T17:26:30.230Z,9.71
2023-02-18T17:28:02.817Z,9.64
2023-02-18T17:29:34.874Z,9.63
2023-02-18T17:31:07.189Z,9.62
2023-02-18T17:32:39.259Z,9.59
2023-02-18T17:35:52.088Z,9.53
2023-02-18T17:37:24.202Z,9.49
2023-02-18T17:38:56.992Z,9.47
2023-02-18T17:40:29.654Z,9.41
2023-02-18T17:42:01.797Z,9.40
2023-02-18T17:43:34.419Z,9.39
2023-02-18T17:45:29.166Z,9.38
2023-02-18T17:47:01.247Z,9.33
2023-02-18T17:48:33.485Z,9.32
2023-02-18T17:50:06.130Z,9.28
2023-02-18T17:51:39.567Z,9.21
2023-02-18T17:53:14.820Z,9.20
2023-02-18T17:54:46.884Z,9.05
2023-02-18T17:56:18.953Z,8.91
2023-02-18T17:57:52.228Z,8.81
2023-02-18T17:59:24.274Z,8.74
2023-02-18T18:00:57.882Z,8.69
2023-02-18T18:02:30.098Z,8.61
2023-02-18T18:04:02.267Z,8.60
2023-02-18T18:05:36.779Z,8.59
2023-02-18T18:07:08.890Z,8.48
2023-02-18T18:08:45.843Z,8.39
2023-02-18T18:10:23.076Z,8.35
2023-02-18T18:11:55.114Z,8.29
2023-02-18T18:13:29.572Z,8.32
2023-02-18T18:15:13.811Z,8.36
2023-02-18T18:16:45.858Z,8.36
2023-02-18T18:18:21.381Z,8.40
2023-02-18T18:19:53.473Z,8.41
2023-02-18T18:21:32.114Z,8.43
2023-02-18T18:23:06.791Z,8.40
2023-02-18T18:24:38.842Z,8.35
2023-02-18T18:26:10.962Z,8.32
2023-02-18T18:27:42.986Z,8.34
2023-02-18T18:29:15.172Z,8.30
2023-02-18T18:30:49.002Z,8.29
2023-02-18T18:32:22.962Z,8.22
2023-02-18T18:33:54.999Z,8.14
2023-02-18T18:35:36.324Z,8.04
2023-02-18T18:37:08.734Z,7.92
2023-02-18T18:40:12.464Z,7.72
2023-02-18T18:41:47.645Z,7.67
2023-02-18T18:43:21.333Z,7.66
2023-02-18T18:44:53.308Z,7.63
2023-02-18T18:46:25.626Z,7.58
2023-02-18T18:47:57.830Z,7.55
2023-02-18T18:49:29.842Z,7.53
2023-02-18T18:51:02.867Z,7.50
2023-02-18T18:52:35.056Z,7.45
2023-02-18T18:54:07.168Z,7.43
2023-02-18T18:55:40.983Z,7.40
2023-02-18T18:57:13.037Z,7.38
2023-02-18T18:58:45.010Z,7.40
2023-02-18T19:00:19.262Z,7.37
2023-02-18T19:01:52.329Z,7.38
2023-02-18T19:03:25.979Z,7.36
2023-02-18T19:04:58.115Z,7.38
2023-02-18T19:06:30.131Z,7.38
2023-02-18T19:08:03.297Z,7.38
2023-02-18T19:11:15.366Z,7.32
2023-02-18T19:12:48.151Z,7.23
2023-02-18T19:14:20.168Z,7.18
2023-02-18T19:16:19.968Z,7.12
2023-02-18T19:17:53.794Z,6.99
2023-02-18T19:19:25.931Z,6.89
2023-02-18T19:20:57.956Z,6.83
2023-02-18T19:22:29.967Z,6.74
2023-02-18T19:24:02.131Z,6.66
2023-02-18T19:25:34.982Z,6.58
2023-02-18T19:27:06.989Z,6.54
2023-02-18T19:28:39.084Z,6.49
2023-02-18T19:30:37.790Z,6.46
2023-02-18T19:32:09.837Z,6.37
2023-02-18T19:33:41.941Z,6.32
2023-02-18T19:35:13.924Z,6.26
2023-02-18T19:36:47.031Z,6.17
2023-02-18T19:38:19.593Z,6.04
2023-02-18T19:39:51.924Z,6.02
2023-02-18T19:41:23.945Z,6.00
2023-02-18T19:42:56.315Z,5.97
2023-02-18T19:44:34.002Z,5.97
2023-02-18T19:46:10.665Z,5.94
2023-02-18T19:47:42.902Z,5.86
2023-02-18T19:49:14.939Z,5.77
2023-02-18T19:50:46.983Z,5.79
2023-02-18T19:52:20.652Z,5.70
2023-02-18T19:53:53.363Z,5.58
2023-02-18T19:55:25.492Z,5.56
2023-02-18T19:56:58.321Z,5.60
2023-02-18T19:58:30.397Z,5.60
2023-02-18T20:00:06.055Z,5.60
2023-02-18T20:01:38.212Z,5.56
2023-02-18T20:03:10.434Z,5.51
2023-02-18T20:04:43.731Z,5.47
2023-02-18T20:06:20.838Z,5.42
2023-02-18T20:07:52.902Z,5.35
2023-02-18T20:09:25.086Z,5.32
2023-02-18T20:11:00.572Z,5.34
2023-02-18T20:12:33.178Z,5.32
2023-02-18T20:14:05.295Z,5.30
2023-02-18T20:15:40.498Z,5.32
2023-02-18T20:17:12.596Z,5.28
2023-02-18T20:18:44.670Z,5.27
2023-02-18T20:20:17.326Z,5.27
2023-02-18T20:21:50.027Z,5.23
2023-02-18T20:23:22.332Z,5.12
2023-02-18T20:24:54.396Z,5.08
2023-02-18T20:26:26.448Z,5.06
2023-02-18T20:28:01.478Z,5.06
2023-02-18T20:29:34.204Z,5.03
2023-02-18T20:31:08.225Z,5.02
2023-02-18T20:32:40.717Z,4.96
2023-02-18T20:34:13.066Z,4.85
2023-02-18T20:35:45.111Z,4.69
2023-02-18T20:37:17.258Z,4.57
2023-02-18T20:38:52.132Z,4.47
2023-02-18T20:40:24.249Z,4.38
2023-02-18T20:41:57.873Z,4.31
2023-02-18T20:43:33.521Z,4.28
2023-02-18T20:45:05.750Z,4.26
2023-02-18T20:46:39.534Z,4.26
2023-02-18T20:48:11.632Z,4.20
2023-02-18T20:49:43.932Z,4.19
2023-02-18T20:51:19.216Z,4.20
2023-02-18T20:52:52.660Z,4.19
2023-02-18T20:54:28.335Z,4.24
2023-02-18T20:56:00.457Z,4.20
2023-02-18T20:57:32.714Z,4.19
2023-02-18T20:59:05.596Z,4.22
2023-02-18T21:00:37.751Z,4.18
2023-02-18T21:02:13.210Z,4.16
2023-02-18T21:03:49.064Z,4.11
2023-02-18T21:05:21.178Z,4.07
2023-02-18T21:06:53.236Z,4.04
2023-02-18T21:08:25.902Z,4.04
2023-02-18T21:09:57.983Z,4.02
2023-02-18T21:11:30.110Z,4.00
2023-02-18T21:13:02.143Z,3.99
2023-02-18T21:14:34.189Z,3.95
2023-02-18T21:16:07.213Z,3.91
2023-02-18T21:17:39.301Z,3.81
2023-02-18T21:19:14.158Z,3.78
2023-02-18T21:20:46.265Z,3.72
2023-02-18T21:22:18.320Z,3.67
2023-02-18T21:23:51.045Z,3.63
2023-02-18T21:25:23.374Z,3.61
2023-02-18T21:26:55.541Z,3.59
2023-02-18T21:28:27.670Z,3.58
2023-02-18T21:30:00.531Z,3.59
2023-02-18T21:31:35.231Z,3.61
2023-02-18T21:33:07.920Z,3.59
2023-02-18T21:34:40.127Z,3.58
2023-02-18T21:36:14.150Z,3.62
2023-02-18T21:37:46.353Z,3.64
2023-02-18T21:39:18.434Z,3.66
2023-02-18T21:40:50.456Z,3.66
2023-02-18T21:42:22.414Z,3.67
2023-02-18T21:43:56.740Z,3.59
2023-02-18T21:45:31.448Z,3.43
2023-02-18T21:47:03.515Z,3.35
2023-02-18T21:48:54.298Z,3.26
2023-02-18T21:50:27.181Z,3.15
2023-02-18T21:52:11.312Z,3.12
2023-02-18T21:53:43.333Z,3.16
2023-02-18T21:55:15.643Z,3.15
2023-02-18T21:56:47.942Z,3.13
2023-02-18T21:58:20.034Z,3.14
2023-02-18T21:59:52.201Z,3.09
2023-02-18T22:01:26.010Z,3.11